Maldives Meteorological Service

METAR

Station
VRMM
METAR VRMM 201000Z 09014KT 9999 SCT018TCU 31/25 Q1010 NOSIG=
VRMH
METAR VRMH 201000Z 04010KT 9999 FEW018TCU SCT120 31/26 Q1010=
VRMK
METAR VRMK 201000Z 05007KT 9000 FEW018 FEW019CB BKN270 29/26 Q1010 CB SW=
VRMT
METAR VRMT 201000Z 09006KT 9999 SCT018 FEW019CB 30/26 Q1009 CB SSW,SW=
VRMG
METAR VRMG 201000Z 10008KT 9999 SCT018TCU BKN260 31/25 Q1009 TEMPO 5000 –SHRA FEW018CB=
Last Updated : 2019-02-20 15:01:40

SPECI

Station
VRMM
VRMH
VRMK
VRMT
VRMG
Last Updated : 2019-02-20 15:01:40